createdAt,value
2023-02-13T00:01:27.327Z,53.98
2023-02-13T00:03:55.623Z,54.15
2023-02-13T00:06:24.628Z,53.85
2023-02-13T00:08:52.954Z,53.69
2023-02-13T00:11:21.632Z,54.12
2023-02-13T00:13:49.915Z,53.68
2023-02-13T00:16:19.587Z,53.99
2023-02-13T00:18:47.859Z,54.11
2023-02-13T00:21:16.137Z,54.10
2023-02-13T00:23:44.354Z,54.00
2023-02-13T00:26:15.390Z,53.82
2023-02-13T00:28:44.023Z,53.97
2023-02-13T00:31:15.151Z,54.06
2023-02-13T00:33:45.116Z,54.02
2023-02-13T00:36:17.936Z,54.02
2023-02-13T00:38:46.575Z,53.97
2023-02-13T00:41:16.668Z,54.11
2023-02-13T00:43:45.422Z,53.94
2023-02-13T00:46:13.869Z,53.99
2023-02-13T00:48:44.174Z,53.69
2023-02-13T00:51:13.203Z,54.14
2023-02-13T00:53:41.501Z,54.08
2023-02-13T00:56:09.933Z,53.79
2023-02-13T00:58:38.985Z,53.98
2023-02-13T01:01:07.498Z,54.07
2023-02-13T01:03:36.112Z,53.96
2023-02-13T01:06:07.030Z,53.66
2023-02-13T01:08:35.844Z,53.57
2023-02-13T01:11:04.154Z,53.84
2023-02-13T01:13:32.455Z,53.79
2023-02-13T01:16:01.412Z,53.48
2023-02-13T01:18:30.145Z,53.64
2023-02-13T01:21:01.800Z,53.54
2023-02-13T01:23:37.407Z,53.58
2023-02-13T01:26:07.892Z,53.74
2023-02-13T01:28:36.737Z,53.57
2023-02-13T01:31:05.221Z,53.76
2023-02-13T01:33:34.641Z,53.50
2023-02-13T01:36:09.003Z,53.89
2023-02-13T01:38:38.775Z,53.48
2023-02-13T01:41:07.513Z,53.81
2023-02-13T01:43:51.352Z,53.90
2023-02-13T01:46:25.960Z,53.67
2023-02-13T01:49:07.122Z,53.83
2023-02-13T01:51:37.371Z,53.71
2023-02-13T01:54:10.428Z,53.71
2023-02-13T01:56:45.189Z,54.07
2023-02-13T01:59:16.434Z,54.02
2023-02-13T02:01:45.425Z,54.04
2023-02-13T02:04:18.118Z,54.04
2023-02-13T02:06:53.323Z,53.83
2023-02-13T02:09:40.621Z,54.15
2023-02-13T02:12:18.939Z,54.19
2023-02-13T02:14:47.236Z,54.01
2023-02-13T02:17:15.635Z,54.08
2023-02-13T02:19:50.827Z,54.07
2023-02-13T02:22:53.718Z,54.25
2023-02-13T02:26:38.810Z,54.18
2023-02-13T02:29:30.739Z,54.41
2023-02-13T02:32:33.130Z,54.22
2023-02-13T02:35:18.279Z,54.29
2023-02-13T02:38:04.938Z,54.37
2023-02-13T02:40:44.857Z,54.26
2023-02-13T02:43:31.561Z,54.14
2023-02-13T02:46:10.108Z,54.43
2023-02-13T02:49:07.918Z,54.53
2023-02-13T02:51:47.775Z,54.60
2023-02-13T02:54:41.334Z,54.72
2023-02-13T02:57:15.317Z,54.48
2023-02-13T03:00:02.647Z,54.44
2023-02-13T03:02:49.385Z,54.36
2023-02-13T03:05:40.530Z,54.39
2023-02-13T03:08:09.273Z,54.36
2023-02-13T03:10:57.275Z,54.28
2023-02-13T03:13:42.422Z,54.62
2023-02-13T03:16:34.859Z,54.62
2023-02-13T03:19:20.548Z,54.56
2023-02-13T03:22:15.543Z,54.58
2023-02-13T03:24:59.790Z,54.37
2023-02-13T03:27:59.811Z,54.28
2023-02-13T03:30:41.810Z,54.39
2023-02-13T03:33:25.292Z,54.52
2023-02-13T03:36:21.099Z,54.61
2023-02-13T03:38:58.566Z,54.47
2023-02-13T03:41:31.923Z,54.57
2023-02-13T03:44:11.040Z,54.61
2023-02-13T03:46:44.098Z,54.42
2023-02-13T03:49:37.419Z,54.43
2023-02-13T03:52:11.523Z,54.34
2023-02-13T03:55:03.364Z,54.31
2023-02-13T03:57:52.701Z,54.25
2023-02-13T04:00:22.993Z,54.60
2023-02-13T04:03:03.217Z,54.67
2023-02-13T04:05:37.047Z,54.66
2023-02-13T04:08:06.046Z,54.14
2023-02-13T04:10:40.525Z,54.69
2023-02-13T04:13:17.603Z,54.36
2023-02-13T04:15:53.764Z,54.41
2023-02-13T04:18:25.957Z,54.43
2023-02-13T04:20:54.622Z,54.52
2023-02-13T04:23:22.889Z,54.33
2023-02-13T04:25:55.560Z,54.49
2023-02-13T04:28:23.990Z,54.54
2023-02-13T04:30:52.345Z,54.43
2023-02-13T04:33:20.716Z,54.35
2023-02-13T04:35:48.950Z,54.61
2023-02-13T04:38:17.185Z,54.71
2023-02-13T04:40:45.473Z,54.47
2023-02-13T04:43:15.127Z,54.40
2023-02-13T04:45:43.383Z,54.71
2023-02-13T04:48:11.662Z,54.64
2023-02-13T04:50:39.922Z,54.58
2023-02-13T04:53:08.313Z,54.54
2023-02-13T04:55:36.786Z,54.22
2023-02-13T04:58:05.079Z,54.41
2023-02-13T05:00:34.669Z,54.77
2023-02-13T05:03:07.224Z,54.68
2023-02-13T05:05:35.980Z,54.46
2023-02-13T05:08:04.636Z,54.46
2023-02-13T05:10:33.006Z,54.37
2023-02-13T05:13:01.313Z,54.75
2023-02-13T05:15:29.757Z,54.49
2023-02-13T05:17:59.406Z,54.55
2023-02-13T05:20:27.653Z,54.81
2023-02-13T05:23:13.884Z,54.43
2023-02-13T05:25:43.285Z,54.60
2023-02-13T05:28:32.613Z,54.35
2023-02-13T05:31:00.317Z,54.32
2023-02-13T05:33:30.291Z,54.59
2023-02-13T05:35:58.592Z,54.41
2023-02-13T05:38:26.830Z,54.45
2023-02-13T05:40:55.590Z,54.41
2023-02-13T05:43:24.114Z,54.54
2023-02-13T05:45:52.861Z,54.68
2023-02-13T05:48:21.123Z,54.70
2023-02-13T05:50:50.730Z,54.61
2023-02-13T05:53:18.966Z,54.56
2023-02-13T05:55:48.196Z,54.11
2023-02-13T05:58:16.387Z,54.36
2023-02-13T06:00:44.631Z,54.17
2023-02-13T06:03:12.855Z,54.40
2023-02-13T06:05:41.266Z,54.40
2023-02-13T06:08:10.848Z,54.60
2023-02-13T06:10:39.337Z,54.29
2023-02-13T06:13:07.573Z,54.61
2023-02-13T06:15:35.875Z,54.26
2023-02-13T06:18:04.169Z,54.67
2023-02-13T06:20:32.504Z,54.65
2023-02-13T06:23:00.877Z,54.44
2023-02-13T06:25:30.799Z,54.24
2023-02-13T06:27:59.048Z,54.50
2023-02-13T06:30:27.445Z,54.42
2023-02-13T06:32:55.720Z,54.48
2023-02-13T06:35:24.099Z,54.24
2023-02-13T06:37:52.568Z,54.68
2023-02-13T06:40:21.320Z,54.25
2023-02-13T06:42:50.977Z,54.66
2023-02-13T06:45:19.513Z,54.34
2023-02-13T06:47:50.287Z,54.19
2023-02-13T06:50:19.386Z,54.25
2023-02-13T06:52:48.795Z,54.40
2023-02-13T06:55:17.804Z,54.40
2023-02-13T06:57:46.787Z,54.44
2023-02-13T07:00:19.285Z,54.20
2023-02-13T07:02:48.674Z,54.27
2023-02-13T07:05:16.991Z,54.21
2023-02-13T07:07:45.347Z,54.73
2023-02-13T07:10:15.559Z,54.53
2023-02-13T07:12:45.801Z,54.47
2023-02-13T07:15:19.165Z,54.45
2023-02-13T07:17:47.403Z,54.40
2023-02-13T07:20:15.759Z,54.52
2023-02-13T07:22:43.991Z,54.53
2023-02-13T07:25:12.235Z,54.62
2023-02-13T07:27:41.638Z,54.82
2023-02-13T07:30:11.207Z,54.57
2023-02-13T07:32:40.831Z,54.96
2023-02-13T07:35:09.419Z,55.15
2023-02-13T07:37:37.680Z,55.07
2023-02-13T07:40:07.501Z,54.77
2023-02-13T07:42:36.187Z,55.22
2023-02-13T07:45:07.550Z,54.96
2023-02-13T07:47:36.058Z,55.04
2023-02-13T07:50:06.966Z,55.26
2023-02-13T07:52:37.132Z,55.17
2023-02-13T07:55:05.967Z,55.16
2023-02-13T07:57:35.147Z,55.23
2023-02-13T08:00:04.419Z,55.46
2023-02-13T08:02:32.745Z,55.24
2023-02-13T08:05:01.047Z,55.32
2023-02-13T08:07:31.547Z,55.50
2023-02-13T08:10:17.217Z,55.49
2023-02-13T08:12:45.974Z,55.50
2023-02-13T08:15:16.312Z,55.62
2023-02-13T08:17:44.648Z,55.17
2023-02-13T08:20:13.525Z,55.41
2023-02-13T08:22:43.219Z,55.16
2023-02-13T08:25:11.683Z,55.06
2023-02-13T08:27:40.455Z,55.61
2023-02-13T08:30:11.616Z,55.17
2023-02-13T08:32:53.520Z,55.28
2023-02-13T08:35:26.610Z,55.38
2023-02-13T08:37:56.345Z,55.52
2023-02-13T08:40:25.981Z,55.62
2023-02-13T08:42:55.864Z,55.23
2023-02-13T08:45:25.197Z,55.18
2023-02-13T08:47:57.176Z,55.30
2023-02-13T08:50:25.920Z,55.51
2023-02-13T08:52:55.714Z,55.67
2023-02-13T08:55:24.075Z,55.80
2023-02-13T08:57:52.365Z,56.00
2023-02-13T09:00:22.147Z,55.64
2023-02-13T09:02:50.463Z,55.71
2023-02-13T09:05:18.918Z,55.88
2023-02-13T09:07:47.285Z,56.27
2023-02-13T09:10:17.189Z,56.12
2023-02-13T09:12:45.462Z,56.26
2023-02-13T09:15:13.777Z,56.32
2023-02-13T09:17:42.039Z,56.29
2023-02-13T09:20:12.714Z,56.66
2023-02-13T09:22:41.163Z,56.57
2023-02-13T09:25:10.392Z,56.80
2023-02-13T09:27:40.204Z,57.05
2023-02-13T09:30:10.413Z,56.87
2023-02-13T09:32:38.891Z,56.99
2023-02-13T09:35:07.555Z,56.83
2023-02-13T09:37:35.896Z,57.16
2023-02-13T09:40:04.286Z,56.91
2023-02-13T09:42:36.912Z,57.67
2023-02-13T09:45:10.021Z,57.68
2023-02-13T09:47:41.409Z,57.42
2023-02-13T09:50:18.800Z,57.56
2023-02-13T09:52:48.152Z,57.29
2023-02-13T09:55:18.890Z,57.27
2023-02-13T09:57:54.552Z,56.92
2023-02-13T10:00:30.895Z,56.68
2023-02-13T10:03:20.373Z,56.43
2023-02-13T10:05:58.244Z,56.15
2023-02-13T10:08:59.218Z,55.91
2023-02-13T10:12:02.377Z,55.82
2023-02-13T10:14:38.528Z,55.89
2023-02-13T10:17:14.153Z,55.93
2023-02-13T10:19:48.287Z,56.33
2023-02-13T10:22:19.709Z,56.01
2023-02-13T10:24:53.018Z,56.09
2023-02-13T10:27:26.421Z,55.88
2023-02-13T10:30:09.635Z,55.99
2023-02-13T10:32:47.951Z,55.70
2023-02-13T10:35:25.559Z,55.93
2023-02-13T10:37:57.837Z,55.70
2023-02-13T10:40:33.605Z,55.79
2023-02-13T10:43:10.029Z,55.67
2023-02-13T10:45:56.407Z,55.53
2023-02-13T10:48:44.426Z,55.56
2023-02-13T10:51:21.052Z,55.67
2023-02-13T10:54:12.616Z,55.67
2023-02-13T10:56:48.434Z,55.87
2023-02-13T10:59:38.828Z,55.52
2023-02-13T11:02:24.167Z,55.72
2023-02-13T11:04:59.954Z,55.75
2023-02-13T11:07:28.839Z,55.26
2023-02-13T11:10:05.316Z,55.30
2023-02-13T11:12:35.764Z,55.44
2023-02-13T11:15:08.338Z,55.54
2023-02-13T11:17:43.121Z,55.60
2023-02-13T11:20:33.946Z,55.69
2023-02-13T11:23:35.997Z,55.76
2023-02-13T11:26:09.168Z,55.66
2023-02-13T11:28:40.201Z,55.65
2023-02-13T11:31:24.049Z,55.26
2023-02-13T11:33:52.570Z,55.44
2023-02-13T11:36:29.144Z,55.94
2023-02-13T11:39:06.033Z,55.63
2023-02-13T11:41:42.135Z,55.53
2023-02-13T11:44:24.279Z,55.66
2023-02-13T11:46:55.191Z,55.32
2023-02-13T11:49:25.956Z,55.58
2023-02-13T11:51:58.121Z,55.07
2023-02-13T11:54:32.561Z,55.15
2023-02-13T11:57:05.291Z,55.26
2023-02-13T11:59:41.728Z,55.20
2023-02-13T12:02:20.037Z,55.15
2023-02-13T12:04:50.644Z,55.22
2023-02-13T12:07:24.404Z,55.30
2023-02-13T12:10:01.959Z,55.42
2023-02-13T12:12:39.466Z,55.25
2023-02-13T12:15:19.563Z,55.00
2023-02-13T12:17:56.059Z,54.56
2023-02-13T12:20:25.339Z,54.51
2023-02-13T12:23:06.037Z,54.51
2023-02-13T12:26:01.168Z,54.49
2023-02-13T12:28:50.373Z,54.59
2023-02-13T12:31:35.837Z,54.43
2023-02-13T12:35:02.951Z,54.39
2023-02-13T12:37:48.538Z,54.56
2023-02-13T12:40:50.663Z,54.77
2023-02-13T12:43:48.117Z,54.17
2023-02-13T12:46:23.972Z,54.26
2023-02-13T12:49:01.787Z,54.28
2023-02-13T12:51:45.038Z,54.13
2023-02-13T12:54:38.010Z,53.97
2023-02-13T12:57:23.983Z,53.94
2023-02-13T13:00:17.554Z,53.91
2023-02-13T13:03:10.735Z,53.94
2023-02-13T13:06:11.439Z,53.83
2023-02-13T13:09:07.978Z,53.80
2023-02-13T13:12:20.467Z,53.70
2023-02-13T13:14:56.827Z,53.85
2023-02-13T13:17:45.290Z,53.86
2023-02-13T13:20:53.459Z,53.98
2023-02-13T13:23:30.712Z,53.46
2023-02-13T13:26:07.845Z,53.61
2023-02-13T13:28:41.976Z,53.57
2023-02-13T13:31:11.736Z,53.40
2023-02-13T13:33:45.486Z,53.33
2023-02-13T13:36:22.993Z,53.20
2023-02-13T13:39:01.616Z,53.36
2023-02-13T13:41:39.484Z,53.33
2023-02-13T13:44:43.065Z,53.32
2023-02-13T13:47:26.361Z,52.54
2023-02-13T13:49:57.076Z,53.25
2023-02-13T13:52:28.618Z,52.77
2023-02-13T13:55:00.517Z,52.85
2023-02-13T13:58:01.813Z,52.90
2023-02-13T14:00:32.714Z,52.66
2023-02-13T14:03:25.585Z,52.74
2023-02-13T14:06:04.857Z,52.58
2023-02-13T14:09:40.733Z,52.69
2023-02-13T14:12:38.901Z,52.61
2023-02-13T14:15:45.969Z,52.41
2023-02-13T14:18:23.110Z,52.54
2023-02-13T14:20:58.565Z,52.47
2023-02-13T14:23:38.623Z,52.44
2023-02-13T14:26:34.848Z,52.47
2023-02-13T14:29:32.891Z,52.50
2023-02-13T14:32:18.377Z,52.75
2023-02-13T14:34:57.884Z,52.70
2023-02-13T14:37:35.266Z,52.55
2023-02-13T14:40:43.323Z,52.57
2023-02-13T14:43:30.802Z,52.57
2023-02-13T14:46:05.376Z,52.38
2023-02-13T14:48:42.682Z,52.26
2023-02-13T14:51:28.593Z,52.30
2023-02-13T14:54:02.693Z,52.23
2023-02-13T14:56:32.849Z,52.22
2023-02-13T14:59:17.819Z,52.16
2023-02-13T15:01:52.995Z,52.00
2023-02-13T15:04:28.042Z,51.85
2023-02-13T15:06:59.041Z,51.84
2023-02-13T15:09:34.485Z,51.79
2023-02-13T15:12:03.109Z,51.75
2023-02-13T15:14:37.401Z,51.67
2023-02-13T15:17:12.050Z,51.66
2023-02-13T15:19:46.369Z,51.63
2023-02-13T15:22:21.595Z,51.46
2023-02-13T15:24:51.474Z,51.59
2023-02-13T15:27:25.389Z,51.32
2023-02-13T15:30:01.590Z,51.43
2023-02-13T15:32:34.193Z,51.27
2023-02-13T15:35:02.445Z,51.30
2023-02-13T15:37:32.307Z,51.14
2023-02-13T15:40:25.292Z,51.19
2023-02-13T15:42:54.596Z,51.22
2023-02-13T15:45:27.608Z,51.03
2023-02-13T15:47:57.063Z,50.98
2023-02-13T15:50:31.232Z,50.97
2023-02-13T15:53:00.196Z,50.96
2023-02-13T15:55:32.170Z,51.14
2023-02-13T15:58:02.363Z,51.01
2023-02-13T16:00:37.194Z,51.04
2023-02-13T16:03:13.068Z,50.99
2023-02-13T16:05:41.795Z,51.02
2023-02-13T16:08:35.314Z,50.90
2023-02-13T16:11:29.157Z,50.99
2023-02-13T16:14:14.350Z,51.14
2023-02-13T16:16:53.169Z,51.10
2023-02-13T16:19:49.891Z,51.12
2023-02-13T16:22:34.384Z,51.17
2023-02-13T16:25:25.093Z,51.15
2023-02-13T16:27:56.541Z,51.08
2023-02-13T16:30:33.441Z,51.09
2023-02-13T16:33:23.945Z,51.17
2023-02-13T16:35:55.189Z,51.11
2023-02-13T16:38:36.122Z,50.99
2023-02-13T16:41:06.939Z,51.01
2023-02-13T16:43:46.659Z,51.05
2023-02-13T16:46:44.454Z,51.08
2023-02-13T16:49:24.816Z,51.12
2023-02-13T16:52:12.472Z,51.03
2023-02-13T16:54:55.854Z,50.97
2023-02-13T16:57:31.334Z,51.05
2023-02-13T17:00:09.731Z,51.10
2023-02-13T17:02:40.008Z,51.09
2023-02-13T17:05:23.145Z,51.17
2023-02-13T17:07:54.631Z,51.05
2023-02-13T17:10:27.334Z,51.07
2023-02-13T17:12:58.286Z,50.96
2023-02-13T17:15:28.825Z,50.83
2023-02-13T17:17:57.171Z,51.01
2023-02-13T17:20:29.842Z,50.92
2023-02-13T17:22:59.751Z,50.93
2023-02-13T17:25:31.467Z,50.77
2023-02-13T17:28:02.465Z,50.80
2023-02-13T17:30:34.118Z,50.79
2023-02-13T17:33:07.613Z,50.82
2023-02-13T17:35:37.570Z,50.88
2023-02-13T17:38:08.348Z,50.90
2023-02-13T17:40:37.042Z,50.91
2023-02-13T17:43:06.463Z,50.94
2023-02-13T17:45:36.186Z,51.07
2023-02-13T17:48:04.979Z,50.84
2023-02-13T17:50:36.802Z,51.00
2023-02-13T17:53:08.553Z,51.06
2023-02-13T17:55:37.375Z,51.12
2023-02-13T17:58:05.741Z,51.09
2023-02-13T18:00:35.567Z,51.13
2023-02-13T18:03:04.555Z,51.13
2023-02-13T18:05:33.254Z,51.07
2023-02-13T18:08:03.198Z,51.24
2023-02-13T18:10:34.291Z,51.35
2023-02-13T18:13:05.061Z,51.18
2023-02-13T18:15:33.685Z,51.28
2023-02-13T18:18:02.261Z,51.25
2023-02-13T18:20:30.553Z,51.17
2023-02-13T18:22:58.847Z,51.25
2023-02-13T18:25:29.202Z,51.27
2023-02-13T18:27:57.452Z,51.23
2023-02-13T18:30:26.211Z,51.15
2023-02-13T18:32:56.671Z,51.26
2023-02-13T18:35:25.260Z,51.17
2023-02-13T18:37:53.530Z,51.20
2023-02-13T18:40:22.512Z,51.04
2023-02-13T18:42:52.465Z,51.15
2023-02-13T18:45:20.949Z,51.01
2023-02-13T18:47:49.202Z,50.69
2023-02-13T18:50:17.589Z,50.80
2023-02-13T18:52:46.717Z,50.95
2023-02-13T18:55:14.944Z,50.73
2023-02-13T18:57:45.380Z,50.84
2023-02-13T19:00:17.299Z,50.89
2023-02-13T19:02:45.634Z,50.78
2023-02-13T19:05:13.955Z,50.72
2023-02-13T19:07:42.241Z,50.65
2023-02-13T19:10:11.414Z,50.70
2023-02-13T19:12:39.711Z,50.80
2023-02-13T19:15:09.533Z,50.75
2023-02-13T19:17:39.804Z,50.72
2023-02-13T19:20:09.879Z,50.68
2023-02-13T19:22:38.231Z,50.71
2023-02-13T19:25:07.173Z,50.62
2023-02-13T19:27:39.032Z,50.68
2023-02-13T19:30:09.655Z,50.74
2023-02-13T19:32:39.418Z,50.64
2023-02-13T19:35:08.537Z,50.76
2023-02-13T19:37:43.886Z,50.75
2023-02-13T19:40:14.228Z,50.61
2023-02-13T19:42:42.631Z,50.60
2023-02-13T19:45:11.635Z,50.60
2023-02-13T19:47:41.298Z,50.87
2023-02-13T19:50:10.937Z,50.64
2023-02-13T19:52:39.365Z,50.46
2023-02-13T19:55:08.307Z,50.64
2023-02-13T19:57:36.619Z,50.70
2023-02-13T20:00:06.072Z,50.49
2023-02-13T20:02:34.307Z,50.58
2023-02-13T20:05:07.021Z,50.53
2023-02-13T20:07:35.321Z,50.46
2023-02-13T20:10:03.599Z,50.49
2023-02-13T20:12:31.846Z,50.57
2023-02-13T20:15:00.153Z,50.65
2023-02-13T20:17:28.424Z,50.41
2023-02-13T20:19:56.844Z,50.35
2023-02-13T20:22:26.553Z,50.66
2023-02-13T20:24:54.845Z,50.52
2023-02-13T20:27:23.137Z,50.28
2023-02-13T20:29:53.303Z,50.44
2023-02-13T20:32:27.376Z,50.21
2023-02-13T20:34:59.874Z,50.38
2023-02-13T20:37:29.796Z,50.00
2023-02-13T20:39:58.072Z,50.38
2023-02-13T20:42:26.352Z,50.31
2023-02-13T20:44:54.804Z,50.11
2023-02-13T20:47:23.050Z,50.43
2023-02-13T20:49:51.327Z,50.51
2023-02-13T20:52:19.605Z,50.68
2023-02-13T20:54:49.288Z,50.73
2023-02-13T20:57:17.549Z,50.61
2023-02-13T20:59:45.950Z,50.62
2023-02-13T21:02:14.408Z,50.22
2023-02-13T21:04:42.766Z,50.42
2023-02-13T21:07:11.193Z,50.34
2023-02-13T21:09:39.732Z,50.29
2023-02-13T21:12:09.416Z,50.35
2023-02-13T21:14:37.817Z,50.40
2023-02-13T21:17:06.081Z,50.24
2023-02-13T21:19:35.223Z,50.52
2023-02-13T21:22:12.202Z,50.64
2023-02-13T21:24:43.090Z,50.64
2023-02-13T21:27:13.044Z,50.54
2023-02-13T21:29:41.359Z,50.54
2023-02-13T21:32:09.753Z,50.40
2023-02-13T21:34:38.142Z,50.39
2023-02-13T21:37:06.425Z,50.43
2023-02-13T21:39:34.660Z,50.55
2023-02-13T21:42:04.449Z,50.41
2023-02-13T21:44:34.060Z,50.34
2023-02-13T21:47:02.364Z,50.57
2023-02-13T21:49:30.668Z,50.42
2023-02-13T21:51:59.009Z,50.67
2023-02-13T21:54:27.446Z,50.66
2023-02-13T21:56:55.732Z,50.50
2023-02-13T21:59:23.939Z,50.46
2023-02-13T22:01:54.761Z,50.85
2023-02-13T22:04:23.189Z,50.88
2023-02-13T22:06:53.544Z,51.23
2023-02-13T22:09:23.065Z,51.05
2023-02-13T22:11:53.984Z,51.56
2023-02-13T22:14:22.638Z,51.38
2023-02-13T22:16:53.493Z,51.52
2023-02-13T22:19:21.905Z,51.95
2023-02-13T22:21:50.195Z,52.43
2023-02-13T22:24:18.459Z,51.96
2023-02-13T22:26:46.832Z,52.01
2023-02-13T22:29:17.790Z,52.15
2023-02-13T22:31:46.345Z,52.02
2023-02-13T22:34:16.419Z,51.99
2023-02-13T22:36:44.682Z,51.95
2023-02-13T22:39:13.366Z,52.19
2023-02-13T22:41:44.482Z,52.11
2023-02-13T22:44:12.738Z,52.11
2023-02-13T22:46:41.014Z,52.48
2023-02-13T22:49:09.352Z,52.57
2023-02-13T22:51:39.051Z,52.28
2023-02-13T22:54:07.569Z,52.51
2023-02-13T22:56:35.929Z,52.33
2023-02-13T22:59:04.595Z,52.67
2023-02-13T23:01:32.845Z,52.81
2023-02-13T23:04:01.233Z,53.21
2023-02-13T23:06:29.620Z,53.16
2023-02-13T23:08:59.378Z,52.95
2023-02-13T23:11:46.794Z,53.18
2023-02-13T23:14:16.332Z,53.48
2023-02-13T23:17:02.558Z,53.16
2023-02-13T23:19:31.137Z,52.99
2023-02-13T23:21:59.686Z,52.90
2023-02-13T23:24:30.544Z,53.39
2023-02-13T23:26:59.084Z,53.04
2023-02-13T23:29:27.821Z,53.08
2023-02-13T23:31:56.208Z,53.25
2023-02-13T23:34:24.586Z,53.18
2023-02-13T23:36:52.876Z,53.42
2023-02-13T23:39:21.544Z,53.36
2023-02-13T23:41:51.224Z,53.33
2023-02-13T23:44:19.705Z,53.40
2023-02-13T23:46:48.105Z,53.71
2023-02-13T23:49:16.610Z,53.36
2023-02-13T23:51:44.893Z,53.57
2023-02-13T23:54:16.673Z,53.58
2023-02-13T23:56:45.644Z,53.74
2023-02-13T23:59:16.746Z,53.67
